This is the latest recevied weather packets stored in our database for station/object G4GVZ-1. If no packets are shown the sender has not sent any weather packets the latest 10 day(s).
| Time | Temp. | Humidity | Pressure | Rain* | Wind** | Luminosity | Snow |
|---|---|---|---|---|---|---|---|
| 1778166053 | 15° C | 53% | 1014 hPa | 0 mm | - | - | - |
| 1778165152 | 15.56° C | 52% | 1014 hPa | 0 mm | - | - | - |
| 1778164251 | 15.56° C | 52% | 1014 hPa | 0 mm | - | - | - |
| 1778163353 | 15.56° C | 52% | 1014.1 hPa | 0 mm | - | - | - |
| 1778162453 | 15.56° C | 50% | 1014.3 hPa | 0 mm | - | - | - |
| 1778161552 | 15.56° C | 48% | 1014.2 hPa | 0 mm | - | - | - |
| 1778160651 | 16.11° C | 48% | 1014.3 hPa | 0 mm | - | - | - |
| 1778159753 | 16.67° C | 45% | 1014.3 hPa | 0 mm | - | - | - |
| 1778158853 | 16.11° C | 46% | 1014.4 hPa | 0 mm | - | - | - |
| 1778157953 | 16.11° C | 46% | 1014.5 hPa | 0 mm | - | - | - |
| 1778157052 | 16.67° C | 44% | 1014.5 hPa | 0 mm | - | - | - |
| 1778156152 | 16.67° C | 47% | 1014.5 hPa | 0 mm | - | - | - |
| 1778155252 | 16.11° C | 50% | 1014.6 hPa | 0 mm | - | - | - |
| 1778154352 | 16.11° C | 50% | 1014.7 hPa | 0 mm | - | - | - |
| 1778153452 | 15.56° C | 49% | 1015.1 hPa | 0 mm | - | - | - |
| 1778152551 | 15.56° C | 56% | 1014.9 hPa | 0 mm | - | - | - |
| 1778151653 | 13.89° C | 61% | 1015.1 hPa | 0 mm | - | - | - |
| 1778150748 | 13.33° C | 64% | 1015.2 hPa | 0 mm | - | - | - |
| 1778149848 | 12.22° C | 69% | 1015 hPa | 0 mm | - | - | - |
| 1778148948 | 12.22° C | 71% | 1015.3 hPa | 0 mm | - | - | - |
| 1778148048 | 11.67° C | 72% | 1015.4 hPa | 0 mm | - | - | - |
| 1778147148 | 11.67° C | 72% | 1015.6 hPa | 0 mm | - | - | - |
| 1778146248 | 10.56° C | 76% | 1015.5 hPa | 0 mm | - | - | - |
| 1778145349 | 10° C | 79% | 1015.5 hPa | 0 mm | - | - | - |
| 1778144450 | 9.44° C | 80% | 1015.4 hPa | 0 mm | - | - | - |
* Rain latest hour (hover to see other rain measurements)
** Current wind speed in m/s (hover to see current wind gust speed)